Map

Track Data

SID SEASON NUMBER BASIN SUBBASIN NAME ISO_TIME NATURE LAT LON WMO_WIND WMO_PRES WMO_AGENCY TRACK_TYPE DIST2LAND LANDFALL IFLAG USA_AGENCY USA_ATCF_ID USA_LAT USA_LON USA_RECORD USA_STATUS USA_WIND USA_PRES USA_SSHS USA_R34_NE USA_R34_SE USA_R34_SW USA_R34_NW USA_R50_NE USA_R50_SE USA_R50_SW USA_R50_NW USA_R64_NE USA_R64_SE USA_R64_SW USA_R64_NW USA_POCI USA_ROCI USA_RMW USA_EYE TOKYO_LAT TOKYO_LON TOKYO_GRADE TOKYO_WIND TOKYO_PRES TOKYO_R50_DIR TOKYO_R50_LONG TOKYO_R50_SHORT TOKYO_R30_DIR TOKYO_R30_LONG TOKYO_R30_SHORT TOKYO_LAND CMA_LAT CMA_LON CMA_CAT CMA_WIND CMA_PRES HKO_LAT HKO_LON HKO_CAT HKO_WIND HKO_PRES NEWDELHI_LAT NEWDELHI_LON NEWDELHI_GRADE NEWDELHI_WIND NEWDELHI_PRES NEWDELHI_CI NEWDELHI_DP NEWDELHI_POCI REUNION_LAT REUNION_LON REUNION_TYPE REUNION_WIND REUNION_PRES REUNION_TNUM REUNION_CI REUNION_RMW REUNION_R34_NE REUNION_R34_SE REUNION_R34_SW REUNION_R34_NW REUNION_R50_NE REUNION_R50_SE REUNION_R50_SW REUNION_R50_NW REUNION_R64_NE REUNION_R64_SE REUNION_R64_SW REUNION_R64_NW BOM_LAT BOM_LON BOM_TYPE BOM_WIND BOM_PRES BOM_TNUM BOM_CI BOM_RMW BOM_R34_NE BOM_R34_SE BOM_R34_SW BOM_R34_NW BOM_R50_NE BOM_R50_SE BOM_R50_SW BOM_R50_NW BOM_R64_NE BOM_R64_SE BOM_R64_SW BOM_R64_NW BOM_ROCI BOM_POCI BOM_EYE BOM_POS_METHOD BOM_PRES_METHOD NADI_LAT NADI_LON NADI_CAT NADI_WIND NADI_PRES WELLINGTON_LAT WELLINGTON_LON WELLINGTON_WIND WELLINGTON_PRES DS824_LAT DS824_LON DS824_STAGE DS824_WIND DS824_PRES TD9636_LAT TD9636_LON TD9636_STAGE TD9636_WIND TD9636_PRES TD9635_LAT TD9635_LON TD9635_WIND TD9635_PRES TD9635_ROCI NEUMANN_LAT NEUMANN_LON NEUMANN_CLASS NEUMANN_WIND NEUMANN_PRES MLC_LAT MLC_LON MLC_CLASS MLC_WIND MLC_PRES USA_GUST BOM_GUST BOM_GUST_PER REUNION_GUST REUNION_GUST_PER USA_SEAHGT USA_SEARAD_NE USA_SEARAD_SE USA_SEARAD_SW USA_SEARAD_NW STORM_SPEED STORM_DIR
1939210N24091 1939 41 NI BB NOT_NAMED 1939-07-29 00:00:00 TS 24.0000 90.7000 main 0 0 _________O____ -1 24.0000 90.7000 TC 30 2 0
1939210N24091 1939 41 NI BB NOT_NAMED 1939-07-29 03:00:00 TS 23.8933 90.6700 main 0 0 _________PO___ -1 23.8400 90.6550 TC 30 24.0000 90.7000 1 2 197
1939210N24091 1939 41 NI BB NOT_NAMED 1939-07-29 06:00:00 TS 23.7700 90.6213 main 0 0 _________OP___ -1 23.7000 90.6000 TC 30 23.8749 90.6532 1 3 204
1939210N24091 1939 41 NI BB NOT_NAMED 1939-07-29 09:00:00 TS 23.6599 90.5537 main 0 0 _________PP___ -1 23.5925 90.5225 TC 30 23.7498 90.5951 1 3 216
1939210N24091 1939 41 NI BB NOT_NAMED 1939-07-29 12:00:00 TS 23.5624 90.4573 main 0 0 _________OP___ -1 23.5000 90.4000 TC 30 23.6249 90.5145 1 3 228
1939210N24091 1939 41 NI BB NOT_NAMED 1939-07-29 15:00:00 TS 23.4500 90.3000 main 0 0 _________PO___ -1 23.4001 90.2000 TC 30 23.5000 90.4000 1 4 234
1939210N24091 1939 41 NI BB NOT_NAMED 1939-07-29 18:00:00 TS 23.3384 90.1235 main 0 0 _________OP___ -1 23.3000 90.0000 TC 30 23.3767 90.2470 1 4 233
1939210N24091 1939 41 NI BB NOT_NAMED 1939-07-29 21:00:00 TS 23.2238 89.9736 main 0 0 _________PP___ -1 23.1850 89.8700 TC 30 23.2627 90.0773 1 3 230
1939210N24091 1939 41 NI BB NOT_NAMED 1939-07-30 00:00:00 TS 23.1337 89.8595 main 0 0 _________OP___ -1 23.1000 89.8000 TC 30 23.1673 89.9189 1 2 232
1939210N24091 1939 41 NI BB NOT_NAMED 1939-07-30 03:00:00 TS 23.0925 89.7925 main 0 0 _________PO___ -1 23.0850 89.7850 TC 30 23.1000 89.8000 1 1 237
1939210N24091 1939 41 NI BB NOT_NAMED 1939-07-30 06:00:00 TS 23.0856 89.7785 main 0 0 _________OP___ -1 23.1000 89.8000 TC 30 23.0712 89.7570 1 0 0
1939210N24091 1939 41 NI BB NOT_NAMED 1939-07-30 09:00:00 TS 23.0850 89.7776 main 0 0 _________PP___ -1 23.1000 89.8000 TC 30 23.0699 89.7551 1 0 0
1939210N24091 1939 41 NI BB NOT_NAMED 1939-07-30 12:00:00 TS 23.0919 89.7879 main 0 0 _________OP___ -1 23.1000 89.8000 TC 30 23.0837 89.7757 1 0 0
1939210N24091 1939 41 NI BB NOT_NAMED 1939-07-30 15:00:00 TS 23.1000 89.8000 main 0 0 _________PO___ -1 23.1000 89.8000 TC 30 23.1000 89.8000 1 0 0
1939210N24091 1939 41 NI BB NOT_NAMED 1939-07-30 18:00:00 TS 23.1000 89.8081 main 0 0 _________OP___ -1 23.1000 89.8000 TC 30 23.1000 89.8163 1 0 0
1939210N24091 1939 41 NI BB NOT_NAMED 1939-07-30 21:00:00 TS 23.1000 89.8225 main 0 0 _________PP___ -1 23.1000 89.8150 TC 30 23.1000 89.8300 1 0 0
1939210N24091 1939 41 NI BB NOT_NAMED 1939-07-31 00:00:00 TS 23.1000 89.8144 main 0 0 _________OP___ -1 23.1000 89.8000 TC 30 23.1000 89.8288 1 1 270
1939210N24091 1939 41 NI BB NOT_NAMED 1939-07-31 03:00:00 TS 23.1000 89.7575 main 0 0 _________PO___ -1 23.1000 89.7150 TC 30 23.1000 89.8000 1 1 270
1939210N24091 1939 41 NI BB NOT_NAMED 1939-07-31 06:00:00 TS 23.1000 89.6644 main 0 0 _________OP___ -1 23.1000 89.6000 TC 30 23.1000 89.7288 1 2 270
1939210N24091 1939 41 NI BB NOT_NAMED 1939-07-31 09:00:00 TS 23.1000 89.5650 main 0 0 _________PP___ -1 23.1000 89.5000 TC 30 23.1000 89.6300 1 2 270
1939210N24091 1939 41 NI BB NOT_NAMED 1939-07-31 12:00:00 TS 23.1000 89.4581 main 0 0 _________OP___ -1 23.1000 89.4000 TC 30 23.1000 89.5163 1 2 270
1939210N24091 1939 41 NI BB NOT_NAMED 1939-07-31 15:00:00 TS 23.1000 89.3500 main 0 0 _________PO___ -1 23.1000 89.3000 TC 30 23.1000 89.4000 1 2 268
1939210N24091 1939 41 NI BB NOT_NAMED 1939-07-31 18:00:00 TS 23.0939 89.2378 main 0 0 _________OP___ -1 23.1000 89.2000 TC 30 23.0879 89.2756 1 2 266
1939210N24091 1939 41 NI BB NOT_NAMED 1939-07-31 21:00:00 TS 23.0850 89.1200 main 0 0 _________PP___ -1 23.0925 89.0850 TC 30 23.0776 89.1550 1 2 269
1939210N24091 1939 41 NI BB NOT_NAMED 1939-08-01 00:00:00 TS 23.0892 89.0285 main 0 0 _________OP___ -1 23.1000 89.0000 TC 30 23.0785 89.0569 1 1 284
1939210N24091 1939 41 NI BB NOT_NAMED 1939-08-01 03:00:00 TS 23.1175 88.9850 main 0 0 _________PO___ -1 23.1350 88.9700 TC 30 23.1000 89.0000 1 1 324
1939210N24091 1939 41 NI BB NOT_NAMED 1939-08-01 06:00:00 TS 23.1744 88.9691 main 0 0 _________OP___ -1 23.2000 89.0000 TC 30 23.1488 88.9381 1 1 348
1939210N24091 1939 41 NI BB NOT_NAMED 1939-08-01 09:00:00 TS 23.2517 88.9617 main 0 0 _________PP___ -1 23.2845 88.9953 TC 30 23.2190 88.9280 1 2 35
1939210N24091 1939 41 NI BB NOT_NAMED 1939-08-01 12:00:00 TS 23.3524 89.1019 main 0 0 _________OP___ -1 23.4000 89.2000 TC 30 23.3047 89.0039 1 6 67
1939210N24091 1939 41 NI BB NOT_NAMED 1939-08-01 15:00:00 TS 23.4794 89.5385 main 0 0 _________PO___ -1 23.5588 89.8769 TC 31 23.4000 89.2000 1 10 75
1939210N24091 1939 41 NI BB NOT_NAMED 1939-08-01 18:00:00 TS 23.6097 90.1409 main 0 0 _________OP___ -1 23.7000 90.6000 TC 32 23.5194 89.6818 1 10 77
1939210N24091 1939 41 NI BB NOT_NAMED 1939-08-01 21:00:00 TS 23.7099 90.6345 main 0 0 _________PP___ -1 23.7794 91.0078 TC 33 23.6404 90.2612 1 8 78
1939210N24091 1939 41 NI BB NOT_NAMED 1939-08-02 00:00:00 TS 23.7704 90.9426 main 0 0 _________OP___ -1 23.8000 91.1000 TC 34 23.7408 90.7852 1 3 77
1939210N24091 1939 41 NI BB NOT_NAMED 1939-08-02 03:00:00 TS 23.7826 90.9662 main 0 0 _________PO___ -1 23.7652 90.8324 TC 36 23.8000 91.1000 2 2 264
1939210N24091 1939 41 NI BB NOT_NAMED 1939-08-02 06:00:00 TS 23.7464 90.7026 main 0 0 _________OP___ -1 23.7000 90.4000 TC 39 23.7928 91.0052 2 5 261
1939210N24091 1939 41 NI BB NOT_NAMED 1939-08-02 09:00:00 TS 23.6975 90.3950 main 0 0 _________PP___ -1 23.6499 90.1000 TC 42 23.7451 90.6900 2 6 260
1939210N24091 1939 41 NI BB NOT_NAMED 1939-08-02 12:00:00 TS 23.6373 90.0275 main 0 0 _________OP___ -1 23.6000 89.8000 TC 45 23.6747 90.2549 2 7 260
1939210N24091 1939 41 NI BB NOT_NAMED 1939-08-02 15:00:00 TS 23.5750 89.6250 main 0 0 _________PO___ -1 23.5500 89.4500 TC 45 23.6000 89.8000 3 7 260
1939210N24091 1939 41 NI BB NOT_NAMED 1939-08-02 18:00:00 TS 23.5187 89.2915 main 0 0 _________OP___ -1 23.5000 89.1000 TC 45 23.5375 89.4830 3 6 259
1939210N24091 1939 41 NI BB NOT_NAMED 1939-08-02 21:00:00 TS 23.4597 88.9861 main 0 0 _________PP___ -1 23.4423 88.8075 TC 45 23.4770 89.1648 3 6 260
1939210N24091 1939 41 NI BB NOT_NAMED 1939-08-03 00:00:00 TS 23.4140 88.6696 main 0 0 _________OP___ -1 23.4000 88.5000 TC 45 23.4281 88.8392 3 6 264
1939210N24091 1939 41 NI BB NOT_NAMED 1939-08-03 03:00:00 TS 23.3925 88.3037 main 0 0 _________PO___ -1 23.3851 88.1075 TC 41 23.4000 88.5000 3 7 269
1939210N24091 1939 41 NI BB NOT_NAMED 1939-08-03 06:00:00 TS 23.3977 87.9137 main 0 0 _________OP___ -1 23.4000 87.7000 TC 37 23.3954 88.1273 3 7 273
1939210N24091 1939 41 NI BB NOT_NAMED 1939-08-03 09:00:00 TS 23.4238 87.5388 main 0 0 _________PP___ -1 23.4349 87.3350 TC 33 23.4127 87.7426 3 7 276
1939210N24091 1939 41 NI BB NOT_NAMED 1939-08-03 12:00:00 TS 23.4743 87.1808 main 0 0 _________OP___ -1 23.5000 87.0000 TC 30 23.4485 87.3616 3 6 281
1939210N24091 1939 41 NI BB NOT_NAMED 1939-08-03 15:00:00 TS 23.5499 86.8463 main 0 0 _________PO___ -1 23.5999 86.6926 TC 30 23.5000 87.0000 1 6 285
1939210N24091 1939 41 NI BB NOT_NAMED 1939-08-03 18:00:00 TS 23.6341 86.5454 main 0 0 _________OP___ -1 23.7000 86.4000 TC 30 23.5682 86.6908 1 6 286
1939210N24091 1939 41 NI BB NOT_NAMED 1939-08-03 21:00:00 TS 23.7070 86.2576 main 0 0 _________PP___ -1 23.7648 86.1150 TC 30 23.6492 86.4002 1 6 284
1939210N24091 1939 41 NI BB NOT_NAMED 1939-08-04 00:00:00 TS 23.7653 85.9548 main 0 0 _________OP___ -1 23.8000 85.8000 TC 30 23.7307 86.1095 1 6 279
1939210N24091 1939 41 NI BB NOT_NAMED 1939-08-04 03:00:00 TS 23.8000 85.6037 main 0 0 _________PO___ -1 23.8001 85.4074 TC 30 23.8000 85.8000 1 7 275
1939210N24091 1939 41 NI BB NOT_NAMED 1939-08-04 06:00:00 TS 23.8197 85.2191 main 0 0 _________OP___ -1 23.8000 85.0000 TC 30 23.8395 85.4383 1 7 275
1939210N24091 1939 41 NI BB NOT_NAMED 1939-08-04 09:00:00 TS 23.8575 84.8499 main 0 0 _________PP___ -1 23.8499 84.6426 TC 30 23.8651 85.0573 1 7 276
1939210N24091 1939 41 NI BB NOT_NAMED 1939-08-04 12:00:00 TS 23.8916 84.4863 main 0 0 _________OP___ -1 23.9000 84.3000 TC 30 23.8832 84.6727 1 7 274
1939210N24091 1939 41 NI BB NOT_NAMED 1939-08-04 15:00:00 TS 23.9000 84.1212 main 0 0 _________PO___ -1 23.9000 83.9424 TC 30 23.9000 84.3000 1 6 272
1939210N24091 1939 41 NI BB NOT_NAMED 1939-08-04 18:00:00 TS 23.9118 83.8006 main 0 0 _________OP___ -1 23.9000 83.6000 TC 30 23.9207 83.9511 1 6 274
1939210N24091 1939 41 NI BB NOT_NAMED 1939-08-04 21:00:00 TS 23.9421 83.4897 main 0 0 _________PP___ -1 23.9376 83.2901 TC 30 23.9452 83.6227 1 5 277
1939210N24091 1939 41 NI BB NOT_NAMED 1939-08-05 00:00:00 TS 23.9814 83.2053 main 0 0 _________OP___ -1 24.0000 83.0000 TC 30 23.9721 83.3080 1 5 277
1939210N24091 1939 41 NI BB NOT_NAMED 1939-08-05 03:00:00 NR 24.0000 83.0000 main 0 __________O___ -1 TC 24.0000 83.0000 1 4 276

About IBTrACS Database

This database is a web-friendly format of International Best Track Archive for Climate Stewardship (IBTrACS), a global best track data archive curated by NOAA dating back to 1842.

Updated: 2021-10-08